createdAt,value
2023-01-29T00:01:56.212Z,101062.63
2023-01-29T00:04:23.340Z,101063.41
2023-01-29T00:06:50.446Z,101067.75
2023-01-29T00:09:17.302Z,101064.28
2023-01-29T00:11:44.957Z,101072.81
2023-01-29T00:14:11.844Z,101069.56
2023-01-29T00:16:38.972Z,101070.34
2023-01-29T00:19:05.771Z,101075.53
2023-01-29T00:21:32.809Z,101070.41
2023-01-29T00:24:00.266Z,101075.59
2023-01-29T00:26:27.818Z,101083.50
2023-01-29T00:28:57.056Z,101078.34
2023-01-29T00:31:25.992Z,101085.25
2023-01-29T00:33:53.000Z,101081.78
2023-01-29T00:36:22.090Z,101079.25
2023-01-29T00:39:10.545Z,101087.09
2023-01-29T00:41:56.329Z,101085.41
2023-01-29T00:44:42.373Z,101095.00
2023-01-29T00:47:29.429Z,101091.47
2023-01-29T00:49:56.912Z,101094.09
2023-01-29T00:52:24.113Z,101095.00
2023-01-29T00:54:58.618Z,101097.63
2023-01-29T00:57:27.939Z,101097.72
2023-01-29T00:59:54.744Z,101102.94
2023-01-29T01:02:41.057Z,101099.44
2023-01-29T01:05:14.035Z,101099.47
2023-01-29T01:07:41.356Z,101097.78
2023-01-29T01:10:22.221Z,101099.53
2023-01-29T01:12:56.699Z,101104.72
2023-01-29T01:15:25.308Z,101097.84
2023-01-29T01:17:57.699Z,101100.44
2023-01-29T01:20:26.708Z,101102.16
2023-01-29T01:22:54.795Z,101106.53
2023-01-29T01:25:23.848Z,101111.69
2023-01-29T01:27:55.946Z,101110.00
2023-01-29T01:30:24.479Z,101107.44
2023-01-29T01:32:51.746Z,101110.00
2023-01-29T01:35:18.673Z,101113.47
2023-01-29T01:37:45.777Z,101110.03
2023-01-29T01:40:19.584Z,101106.56
2023-01-29T01:42:52.075Z,101116.13
2023-01-29T01:45:28.421Z,101122.16
2023-01-29T01:48:13.097Z,101116.06
2023-01-29T01:50:43.115Z,101121.28
2023-01-29T01:53:13.712Z,101118.72
2023-01-29T01:55:49.784Z,101121.34
2023-01-29T01:58:27.168Z,101122.19
2023-01-29T02:00:55.133Z,101119.66
2023-01-29T02:03:43.220Z,101119.63
2023-01-29T02:06:29.520Z,101112.72
2023-01-29T02:09:23.607Z,101117.06
2023-01-29T02:11:51.619Z,101111.84
2023-01-29T02:14:18.976Z,101130.88
2023-01-29T02:16:45.798Z,101130.03
2023-01-29T02:19:30.726Z,101124.84
2023-01-29T02:22:25.915Z,101136.09
2023-01-29T02:24:59.216Z,101141.28
2023-01-29T02:27:41.449Z,101135.22
2023-01-29T02:30:23.337Z,101133.50
2023-01-29T02:33:22.270Z,101140.41
2023-01-29T02:36:18.544Z,101135.22
2023-01-29T02:39:01.906Z,101136.09
2023-01-29T02:41:37.718Z,101140.41
2023-01-29T02:44:30.468Z,101146.47
2023-01-29T02:47:04.123Z,101149.91
2023-01-29T02:49:36.119Z,101149.94
2023-01-29T02:52:11.901Z,101149.09
2023-01-29T02:54:51.790Z,101158.56
2023-01-29T02:57:18.845Z,101155.97
2023-01-29T02:59:59.485Z,101164.63
2023-01-29T03:02:44.062Z,101160.28
2023-01-29T03:05:17.670Z,101161.16
2023-01-29T03:07:52.040Z,101162.88
2023-01-29T03:10:26.849Z,101162.00
2023-01-29T03:13:14.757Z,101164.59
2023-01-29T03:15:51.276Z,101156.81
2023-01-29T03:18:22.518Z,101159.41
2023-01-29T03:20:58.443Z,101161.16
2023-01-29T03:23:52.337Z,101162.88
2023-01-29T03:26:41.371Z,101174.97
2023-01-29T03:29:30.881Z,101165.41
2023-01-29T03:32:05.627Z,101172.34
2023-01-29T03:34:43.756Z,101181.81
2023-01-29T03:37:22.441Z,101177.50
2023-01-29T03:39:49.736Z,101165.41
2023-01-29T03:42:29.771Z,101179.19
2023-01-29T03:45:26.369Z,101173.19
2023-01-29T03:48:08.028Z,101179.19
2023-01-29T03:50:59.320Z,101179.19
2023-01-29T03:53:49.137Z,101168.81
2023-01-29T03:56:16.156Z,101167.97
2023-01-29T03:58:52.968Z,101173.16
2023-01-29T04:01:25.836Z,101181.75
2023-01-29T04:03:58.071Z,101173.09
2023-01-29T04:06:33.173Z,101170.53
2023-01-29T04:09:07.423Z,101164.44
2023-01-29T04:11:40.077Z,101167.03
2023-01-29T04:14:07.542Z,101173.94
2023-01-29T04:16:44.044Z,101181.72
2023-01-29T04:19:11.992Z,101173.06
2023-01-29T04:21:39.674Z,101173.94
2023-01-29T04:24:08.065Z,101177.38
2023-01-29T04:26:49.476Z,101174.78
2023-01-29T04:29:34.196Z,101173.94
2023-01-29T04:32:30.225Z,101169.56
2023-01-29T04:35:24.161Z,101163.47
2023-01-29T04:37:56.877Z,101169.59
2023-01-29T04:40:27.586Z,101178.25
2023-01-29T04:43:03.357Z,101178.19
2023-01-29T04:45:54.387Z,101173.94
2023-01-29T04:48:43.652Z,101180.84
2023-01-29T04:51:25.124Z,101170.47
2023-01-29T04:54:12.240Z,101177.38
2023-01-29T04:57:06.326Z,101178.22
2023-01-29T04:59:39.838Z,101177.38
2023-01-29T05:02:09.879Z,101173.03
2023-01-29T05:04:40.174Z,101178.25
2023-01-29T05:07:11.881Z,101169.66
2023-01-29T05:09:39.494Z,101171.38
2023-01-29T05:12:09.266Z,101172.22
2023-01-29T05:14:38.924Z,101172.22
2023-01-29T05:17:14.243Z,101173.06
2023-01-29T05:19:41.836Z,101175.66
2023-01-29T05:22:11.472Z,101173.97
2023-01-29T05:24:38.654Z,101172.25
2023-01-29T05:27:23.955Z,101166.19
2023-01-29T05:29:51.017Z,101172.19
2023-01-29T05:32:17.799Z,101172.22
2023-01-29T05:34:44.821Z,101172.19
2023-01-29T05:37:11.627Z,101177.38
2023-01-29T05:39:38.707Z,101173.03
2023-01-29T05:42:05.505Z,101168.72
2023-01-29T05:44:32.736Z,101173.03
2023-01-29T05:46:59.597Z,101176.47
2023-01-29T05:49:26.664Z,101168.72
2023-01-29T05:51:53.468Z,101174.78
2023-01-29T05:54:20.490Z,101186.88
2023-01-29T05:56:47.312Z,101180.88
2023-01-29T05:59:15.519Z,101180.84
2023-01-29T06:01:42.336Z,101193.00
2023-01-29T06:04:09.397Z,101186.06
2023-01-29T06:06:36.193Z,101190.38
2023-01-29T06:09:03.582Z,101183.47
2023-01-29T06:11:30.362Z,101191.25
2023-01-29T06:13:57.735Z,101193.84
2023-01-29T06:16:24.555Z,101195.56
2023-01-29T06:18:51.630Z,101199.06
2023-01-29T06:21:20.049Z,101198.19
2023-01-29T06:23:47.270Z,101207.69
2023-01-29T06:26:15.283Z,101219.81
2023-01-29T06:28:42.848Z,101220.66
2023-01-29T06:31:27.393Z,101226.69
2023-01-29T06:33:58.747Z,101233.59
2023-01-29T06:36:25.533Z,101228.44
2023-01-29T06:38:52.607Z,101233.59
2023-01-29T06:41:22.764Z,101243.13
2023-01-29T06:43:49.812Z,101241.34
2023-01-29T06:46:16.668Z,101247.44
2023-01-29T06:48:44.000Z,101240.47
2023-01-29T06:51:11.289Z,101246.59
2023-01-29T06:53:39.528Z,101243.13
2023-01-29T06:56:07.787Z,101245.72
2023-01-29T06:58:37.258Z,101251.75
2023-01-29T07:01:06.107Z,101244.84
2023-01-29T07:03:33.111Z,101243.94
2023-01-29T07:06:00.605Z,101243.13
2023-01-29T07:08:28.442Z,101250.06
2023-01-29T07:11:01.786Z,101249.19
2023-01-29T07:13:28.723Z,101243.97
2023-01-29T07:16:03.131Z,101243.91
2023-01-29T07:18:30.993Z,101240.47
2023-01-29T07:20:58.349Z,101230.94
2023-01-29T07:23:25.362Z,101228.31
2023-01-29T07:25:52.530Z,101235.28
2023-01-29T07:28:20.655Z,101233.53
2023-01-29T07:30:47.881Z,101229.28
2023-01-29T07:33:14.731Z,101229.25
2023-01-29T07:35:43.459Z,101234.41
2023-01-29T07:38:11.589Z,101226.69
2023-01-29T07:40:38.639Z,101224.91
2023-01-29T07:43:07.279Z,101215.34
2023-01-29T07:45:36.721Z,101214.50
2023-01-29T07:48:05.200Z,101211.91
2023-01-29T07:50:35.955Z,101210.22
2023-01-29T07:53:02.925Z,101219.69
2023-01-29T07:55:30.450Z,101217.13
2023-01-29T07:57:58.735Z,101216.22
2023-01-29T08:00:26.460Z,101217.06
2023-01-29T08:02:53.261Z,101212.75
2023-01-29T08:05:20.644Z,101222.25
2023-01-29T08:08:05.685Z,101226.59
2023-01-29T08:10:37.710Z,101228.34
2023-01-29T08:13:06.152Z,101225.81
2023-01-29T08:15:33.730Z,101216.25
2023-01-29T08:18:02.303Z,101228.34
2023-01-29T08:20:29.588Z,101224.91
2023-01-29T08:23:01.184Z,101236.16
2023-01-29T08:25:29.262Z,101231.81
2023-01-29T08:27:57.929Z,101239.56
2023-01-29T08:30:27.012Z,101243.91
2023-01-29T08:32:53.811Z,101240.44
2023-01-29T08:35:21.478Z,101240.44
2023-01-29T08:38:00.320Z,101238.75
2023-01-29T08:40:28.806Z,101247.38
2023-01-29T08:43:03.974Z,101261.22
2023-01-29T08:45:34.203Z,101269.03
2023-01-29T08:48:01.437Z,101268.22
2023-01-29T08:50:30.665Z,101263.88
2023-01-29T08:53:01.801Z,101283.72
2023-01-29T08:55:29.608Z,101278.53
2023-01-29T08:57:59.294Z,101282.00
2023-01-29T09:00:26.086Z,101280.31
2023-01-29T09:02:53.152Z,101292.41
2023-01-29T09:05:20.454Z,101288.09
2023-01-29T09:07:47.671Z,101291.53
2023-01-29T09:10:14.496Z,101284.59
2023-01-29T09:12:41.519Z,101285.47
2023-01-29T09:15:08.926Z,101282.03
2023-01-29T09:17:36.011Z,101289.81
2023-01-29T09:20:05.284Z,101282.91
2023-01-29T09:22:32.339Z,101289.81
2023-01-29T09:24:59.465Z,101285.47
2023-01-29T09:27:26.617Z,101288.06
2023-01-29T09:29:53.751Z,101287.16
2023-01-29T09:32:49.893Z,101296.66
2023-01-29T09:35:08.080Z,101295.84
2023-01-29T09:37:35.220Z,101293.25
2023-01-29T09:40:01.977Z,101287.16
2023-01-29T09:42:44.311Z,101288.84
2023-01-29T09:45:19.448Z,101300.03
2023-01-29T09:47:48.808Z,101300.06
2023-01-29T09:50:20.528Z,101298.41
2023-01-29T09:52:56.898Z,101302.75
2023-01-29T09:56:02.707Z,101294.97
2023-01-29T09:58:36.238Z,101299.28
2023-01-29T10:01:27.901Z,101298.44
2023-01-29T10:04:30.805Z,101301.88
2023-01-29T10:07:13.081Z,101301.00
2023-01-29T10:10:15.473Z,101301.81
2023-01-29T10:13:05.518Z,101294.03
2023-01-29T10:15:35.168Z,101303.59
2023-01-29T10:18:10.775Z,101304.44
2023-01-29T10:20:59.302Z,101308.75
2023-01-29T10:23:28.759Z,101301.75
2023-01-29T10:25:56.595Z,101297.50
2023-01-29T10:28:34.489Z,101294.09
2023-01-29T10:31:08.478Z,101294.03
2023-01-29T10:33:49.420Z,101297.50
2023-01-29T10:36:38.448Z,101298.38
2023-01-29T10:39:05.384Z,101303.56
2023-01-29T10:42:10.148Z,101299.28
2023-01-29T10:45:01.684Z,101289.75
2023-01-29T10:47:41.086Z,101293.25
2023-01-29T10:50:59.137Z,101300.19
2023-01-29T10:53:40.236Z,101288.06
2023-01-29T10:56:22.985Z,101281.16
2023-01-29T10:58:55.757Z,101269.91
2023-01-29T11:01:23.032Z,101269.00
2023-01-29T11:04:01.275Z,101260.38
2023-01-29T11:06:33.624Z,101256.06
2023-01-29T11:09:21.769Z,101263.84
2023-01-29T11:12:15.441Z,101265.59
2023-01-29T11:14:53.345Z,101265.56
2023-01-29T11:17:23.480Z,101267.38
2023-01-29T11:19:53.041Z,101259.56
2023-01-29T11:22:23.281Z,101246.63
2023-01-29T11:25:19.146Z,101239.69
2023-01-29T11:27:49.406Z,101234.47
2023-01-29T11:30:27.909Z,101241.31
2023-01-29T11:33:07.419Z,101232.63
2023-01-29T11:35:36.483Z,101217.97
2023-01-29T11:38:27.621Z,101220.59
2023-01-29T11:41:07.227Z,101220.69
2023-01-29T11:43:34.040Z,101209.41
2023-01-29T11:46:13.525Z,101205.06
2023-01-29T11:48:59.049Z,101203.25
2023-01-29T11:51:29.804Z,101188.59
2023-01-29T11:54:02.355Z,101185.91
2023-01-29T11:56:35.729Z,101188.53
2023-01-29T11:59:05.947Z,101184.22
2023-01-29T12:01:41.217Z,101189.38
2023-01-29T12:04:25.958Z,101196.38
2023-01-29T12:06:54.600Z,101181.59
2023-01-29T12:09:24.980Z,101196.19
2023-01-29T12:11:52.657Z,101187.66
2023-01-29T12:14:28.545Z,101182.47
2023-01-29T12:17:26.385Z,101181.63
2023-01-29T12:20:06.524Z,101173.75
2023-01-29T12:22:41.167Z,101181.69
2023-01-29T12:25:22.221Z,101180.78
2023-01-29T12:28:09.546Z,101179.03
2023-01-29T12:31:07.371Z,101181.63
2023-01-29T12:33:54.700Z,101179.88
2023-01-29T12:37:01.625Z,101176.38
2023-01-29T12:39:28.765Z,101183.34
2023-01-29T12:42:06.653Z,101177.31
2023-01-29T12:44:42.452Z,101177.25
2023-01-29T12:47:27.848Z,101170.38
2023-01-29T12:50:00.649Z,101170.41
2023-01-29T12:52:30.267Z,101174.72
2023-01-29T12:55:07.052Z,101166.88
2023-01-29T12:57:36.804Z,101169.31
2023-01-29T13:00:26.053Z,101161.50
2023-01-29T13:03:18.342Z,101163.19
2023-01-29T13:05:47.810Z,101154.41
2023-01-29T13:08:32.082Z,101149.38
2023-01-29T13:11:04.557Z,101145.97
2023-01-29T13:13:36.847Z,101147.72
2023-01-29T13:16:07.587Z,101129.53
2023-01-29T13:18:49.072Z,101133.06
2023-01-29T13:21:27.431Z,101127.13
2023-01-29T13:24:02.812Z,101116.56
2023-01-29T13:26:30.893Z,101117.63
2023-01-29T13:28:58.394Z,101114.97
2023-01-29T13:31:35.377Z,101111.34
2023-01-29T13:34:21.812Z,101108.78
2023-01-29T13:36:52.383Z,101106.84
2023-01-29T13:39:31.937Z,101119.66
2023-01-29T13:42:00.996Z,101124.78
2023-01-29T13:44:37.796Z,101115.34
2023-01-29T13:47:08.671Z,101126.63
2023-01-29T13:49:52.986Z,101124.25
2023-01-29T13:52:30.847Z,101127.03
2023-01-29T13:55:02.104Z,101127.97
2023-01-29T13:57:44.235Z,101126.28
2023-01-29T14:00:34.007Z,101107.09
2023-01-29T14:03:01.056Z,101111.59
2023-01-29T14:05:32.126Z,101119.31
2023-01-29T14:08:34.264Z,101121.81
2023-01-29T14:11:13.352Z,101119.22
2023-01-29T14:13:42.040Z,101132.41
2023-01-29T14:16:11.540Z,101137.47
2023-01-29T14:18:55.448Z,101130.50
2023-01-29T14:21:30.525Z,101139.97
2023-01-29T14:24:16.811Z,101132.22
2023-01-29T14:26:47.385Z,101135.66
2023-01-29T14:29:34.411Z,101145.28
2023-01-29T14:32:19.706Z,101131.66
2023-01-29T14:34:52.065Z,101139.38
2023-01-29T14:37:24.971Z,101131.47
2023-01-29T14:39:54.724Z,101147.91
2023-01-29T14:42:23.783Z,101138.44
2023-01-29T14:45:00.454Z,101140.28
2023-01-29T14:47:27.170Z,101141.19
2023-01-29T14:50:03.175Z,101135.19
2023-01-29T14:52:40.313Z,101140.44
2023-01-29T14:55:19.026Z,101138.69
2023-01-29T14:57:46.079Z,101145.63
2023-01-29T15:00:22.014Z,101138.69
2023-01-29T15:03:01.333Z,101131.78
2023-01-29T15:05:37.241Z,101146.50
2023-01-29T15:08:32.169Z,101137.00
2023-01-29T15:11:25.609Z,101143.03
2023-01-29T15:14:13.948Z,101137.88
2023-01-29T15:16:46.174Z,101140.44
2023-01-29T15:19:26.239Z,101135.28
2023-01-29T15:22:25.940Z,101128.34
2023-01-29T15:25:15.318Z,101126.66
2023-01-29T15:27:46.091Z,101124.06
2023-01-29T15:30:18.977Z,101124.94
2023-01-29T15:32:48.017Z,101124.06
2023-01-29T15:36:06.301Z,101133.53
2023-01-29T15:38:34.109Z,101131.81
2023-01-29T15:41:03.609Z,101124.03
2023-01-29T15:43:42.923Z,101140.41
2023-01-29T15:46:37.537Z,101136.94
2023-01-29T15:49:11.695Z,101140.44
2023-01-29T15:51:38.929Z,101126.59
2023-01-29T15:54:10.938Z,101136.97
2023-01-29T15:56:51.160Z,101141.31
2023-01-29T15:59:23.711Z,101143.03
2023-01-29T16:01:50.555Z,101134.41
2023-01-29T16:04:23.970Z,101137.00
2023-01-29T16:06:53.751Z,101144.75
2023-01-29T16:09:24.179Z,101148.19
2023-01-29T16:11:53.302Z,101145.56
2023-01-29T16:14:25.777Z,101137.81
2023-01-29T16:16:53.036Z,101136.13
2023-01-29T16:19:26.756Z,101147.31
2023-01-29T16:22:05.928Z,101138.69
2023-01-29T16:24:37.147Z,101149.03
2023-01-29T16:27:14.923Z,101149.00
2023-01-29T16:29:42.694Z,101152.44
2023-01-29T16:32:12.368Z,101156.75
2023-01-29T16:34:45.790Z,101164.50
2023-01-29T16:37:32.388Z,101167.97
2023-01-29T16:39:59.853Z,101168.81
2023-01-29T16:42:31.424Z,101166.22
2023-01-29T16:45:01.262Z,101169.69
2023-01-29T16:47:38.583Z,101172.28
2023-01-29T16:50:36.090Z,101174.91
2023-01-29T16:53:23.312Z,101168.00
2023-01-29T16:55:52.537Z,101178.38
2023-01-29T16:58:21.978Z,101169.72
2023-01-29T17:00:53.512Z,101174.03
2023-01-29T17:03:21.402Z,101176.56
2023-01-29T17:05:48.852Z,101179.16
2023-01-29T17:08:45.215Z,101172.22
2023-01-29T17:11:22.944Z,101170.50
2023-01-29T17:13:49.926Z,101174.75
2023-01-29T17:16:32.417Z,101164.44
2023-01-29T17:19:00.384Z,101160.09
2023-01-29T17:21:30.135Z,101161.00
2023-01-29T17:23:56.953Z,101167.03
2023-01-29T17:26:24.861Z,101156.69
2023-01-29T17:28:53.720Z,101154.06
2023-01-29T17:31:20.937Z,101150.59
2023-01-29T17:33:48.048Z,101141.13
2023-01-29T17:36:17.033Z,101147.13
2023-01-29T17:38:44.631Z,101141.94
2023-01-29T17:41:25.672Z,101137.63
2023-01-29T17:43:52.445Z,101136.72
2023-01-29T17:46:20.092Z,101129.75
2023-01-29T17:48:49.148Z,101133.28
2023-01-29T17:51:17.884Z,101141.06
2023-01-29T17:53:46.709Z,101125.50
2023-01-29T17:56:21.381Z,101122.06
2023-01-29T17:58:48.060Z,101119.50
2023-01-29T18:01:15.220Z,101112.63
2023-01-29T18:03:42.113Z,101121.22
2023-01-29T18:06:10.274Z,101112.56
2023-01-29T18:08:39.600Z,101118.56
2023-01-29T18:11:06.732Z,101123.72
2023-01-29T18:13:36.107Z,101121.13
2023-01-29T18:16:03.504Z,101125.47
2023-01-29T18:18:30.280Z,101120.38
2023-01-29T18:20:57.332Z,101115.19
2023-01-29T18:23:24.141Z,101118.56
2023-01-29T18:25:52.712Z,101107.31
2023-01-29T18:28:19.608Z,101102.06
2023-01-29T18:30:47.834Z,101100.31
2023-01-29T18:33:16.320Z,101101.19
2023-01-29T18:35:50.690Z,101108.03
2023-01-29T18:38:17.816Z,101102.91
2023-01-29T18:40:44.940Z,101105.53
2023-01-29T18:43:11.753Z,101109.78
2023-01-29T18:45:38.915Z,101096.88
2023-01-29T18:48:05.962Z,101101.19
2023-01-29T18:50:33.327Z,101106.25
2023-01-29T18:53:00.384Z,101107.16
2023-01-29T18:55:27.541Z,101106.38
2023-01-29T18:58:26.332Z,101110.66
2023-01-29T19:00:42.092Z,101104.63
2023-01-29T19:03:10.065Z,101106.31
2023-01-29T19:05:37.169Z,101105.41
2023-01-29T19:08:05.359Z,101121.75
2023-01-29T19:10:33.422Z,101111.38
2023-01-29T19:13:00.692Z,101112.28
2023-01-29T19:15:27.889Z,101104.63
2023-01-29T19:17:55.006Z,101093.34
2023-01-29T19:20:22.166Z,101096.00
2023-01-29T19:22:48.993Z,101095.97
2023-01-29T19:25:17.893Z,101095.16
2023-01-29T19:27:46.012Z,101102.03
2023-01-29T19:30:13.389Z,101100.31
2023-01-29T19:32:41.069Z,101101.13
2023-01-29T19:35:08.464Z,101103.81
2023-01-29T19:37:35.311Z,101102.84
2023-01-29T19:40:02.389Z,101101.13
2023-01-29T19:42:29.381Z,101086.50
2023-01-29T19:44:56.497Z,101084.75
2023-01-29T19:47:23.348Z,101087.28
2023-01-29T19:49:50.416Z,101084.69
2023-01-29T19:52:49.904Z,101078.72
2023-01-29T19:55:18.741Z,101093.38
2023-01-29T19:57:45.954Z,101094.19
2023-01-29T20:00:15.605Z,101094.22
2023-01-29T20:02:42.504Z,101087.28
2023-01-29T20:05:12.033Z,101092.47
2023-01-29T20:07:42.553Z,101090.81
2023-01-29T20:10:16.813Z,101085.50
2023-01-29T20:12:47.555Z,101091.53
2023-01-29T20:15:15.417Z,101092.44
2023-01-29T20:17:42.377Z,101084.72
2023-01-29T20:20:10.289Z,101077.00
2023-01-29T20:22:37.104Z,101081.22
2023-01-29T20:25:04.457Z,101076.94
2023-01-29T20:27:31.285Z,101072.66
2023-01-29T20:29:59.719Z,101061.53
2023-01-29T20:32:26.640Z,101055.44
2023-01-29T20:34:53.685Z,101062.28
2023-01-29T20:37:20.543Z,101067.47
2023-01-29T20:39:47.690Z,101060.63
2023-01-29T20:42:14.596Z,101060.63
2023-01-29T20:44:42.071Z,101056.28
2023-01-29T20:47:09.196Z,101059.78
2023-01-29T20:49:36.264Z,101066.66
2023-01-29T20:52:03.240Z,101070.06
2023-01-29T20:54:33.130Z,101066.63
2023-01-29T20:57:00.329Z,101071.88
2023-01-29T20:59:28.978Z,101066.66
2023-01-29T21:01:56.049Z,101065.75
2023-01-29T21:04:23.262Z,101071.78
2023-01-29T21:06:50.080Z,101068.28
2023-01-29T21:09:17.222Z,101073.41
2023-01-29T21:11:45.132Z,101071.75
2023-01-29T21:14:12.497Z,101080.28
2023-01-29T21:16:40.082Z,101085.47
2023-01-29T21:19:07.190Z,101086.31
2023-01-29T21:21:34.671Z,101081.16
2023-01-29T21:24:01.744Z,101089.75
2023-01-29T21:26:28.660Z,101091.47
2023-01-29T21:28:58.838Z,101088.81
2023-01-29T21:31:25.731Z,101085.41
2023-01-29T21:33:53.016Z,101089.66
2023-01-29T21:36:19.769Z,101088.06
2023-01-29T21:38:46.930Z,101084.66
2023-01-29T21:41:13.692Z,101095.69
2023-01-29T21:43:40.740Z,101086.22
2023-01-29T21:46:15.574Z,101089.66
2023-01-29T21:48:43.194Z,101094.03
2023-01-29T21:51:09.943Z,101089.72
2023-01-29T21:53:37.318Z,101082.81
2023-01-29T21:56:05.669Z,101077.66
2023-01-29T21:58:33.201Z,101078.53
2023-01-29T22:01:35.748Z,101071.69
2023-01-29T22:03:47.784Z,101064.81
2023-01-29T22:06:15.315Z,101063.09
2023-01-29T22:08:42.572Z,101064.59
2023-01-29T22:11:10.184Z,101061.28
2023-01-29T22:13:37.488Z,101056.09
2023-01-29T22:16:05.967Z,101052.72
2023-01-29T22:18:33.889Z,101061.22
2023-01-29T22:21:04.428Z,101048.31
2023-01-29T22:23:32.445Z,101037.09
2023-01-29T22:26:03.824Z,101036.31
2023-01-29T22:28:31.092Z,101035.47
2023-01-29T22:31:02.168Z,101034.69
2023-01-29T22:33:29.495Z,101026.06
2023-01-29T22:35:56.931Z,101022.56
2023-01-29T22:38:24.158Z,101032.06
2023-01-29T22:40:51.849Z,101028.53
2023-01-29T22:43:19.074Z,101024.38
2023-01-29T22:45:45.956Z,101014.00
2023-01-29T22:48:13.520Z,101007.97
2023-01-29T22:50:40.899Z,101008.03
2023-01-29T22:53:08.990Z,101008.88
2023-01-29T22:55:35.753Z,101013.09
2023-01-29T22:58:02.818Z,101006.22
2023-01-29T23:00:29.564Z,101001.91
2023-01-29T23:02:56.630Z,101006.16
2023-01-29T23:05:23.457Z,101000.19
2023-01-29T23:07:50.512Z,101002.78
2023-01-29T23:10:17.673Z,101003.69
2023-01-29T23:12:44.849Z,101005.38
2023-01-29T23:15:11.693Z,101006.25
2023-01-29T23:17:39.755Z,101003.78
2023-01-29T23:20:07.256Z,101000.34
2023-01-29T23:22:34.501Z,100990.84
2023-01-29T23:25:02.810Z,100997.75
2023-01-29T23:27:29.884Z,100994.25
2023-01-29T23:29:56.758Z,100986.50
2023-01-29T23:32:23.790Z,100986.50
2023-01-29T23:34:50.578Z,100977.91
2023-01-29T23:37:17.670Z,100978.72
2023-01-29T23:39:44.451Z,100977.75
2023-01-29T23:42:11.583Z,100975.22
2023-01-29T23:44:40.177Z,100977.78
2023-01-29T23:47:08.150Z,100976.06
2023-01-29T23:49:35.094Z,100971.78
2023-01-29T23:52:02.444Z,100964.94
2023-01-29T23:54:29.392Z,100967.47
2023-01-29T23:56:56.505Z,100957.97
2023-01-29T23:59:23.303Z,100959.72
